createdAt,value
2022-08-21T00:01:24.936Z,19.24
2022-08-21T00:03:56.024Z,19.22
2022-08-21T00:06:27.772Z,19.31
2022-08-21T00:09:03.008Z,19.20
2022-08-21T00:11:35.932Z,19.22
2022-08-21T00:14:08.319Z,19.26
2022-08-21T00:16:40.488Z,19.14
2022-08-21T00:19:14.613Z,19.12
2022-08-21T00:21:45.514Z,19.08
2022-08-21T00:24:16.953Z,19.00
2022-08-21T00:26:48.449Z,18.97
2022-08-21T00:29:19.835Z,19.00
2022-08-21T00:31:50.340Z,19.02
2022-08-21T00:34:20.898Z,18.98
2022-08-21T00:36:51.460Z,18.98
2022-08-21T00:39:22.373Z,18.90
2022-08-21T00:41:53.084Z,18.87
2022-08-21T00:44:23.561Z,18.83
2022-08-21T00:46:57.266Z,18.95
2022-08-21T00:49:28.993Z,18.86
2022-08-21T00:52:03.249Z,18.84
2022-08-21T00:54:35.841Z,18.84
2022-08-21T00:57:12.024Z,18.93
2022-08-21T00:59:45.660Z,18.92
2022-08-21T01:02:17.753Z,18.81
2022-08-21T01:04:48.792Z,18.72
2022-08-21T01:07:21.030Z,18.73
2022-08-21T01:09:53.801Z,18.71
2022-08-21T01:12:24.673Z,18.60
2022-08-21T01:14:55.835Z,18.59
2022-08-21T01:17:27.246Z,18.50
2022-08-21T01:20:04.094Z,18.39
2022-08-21T01:22:36.416Z,18.39
2022-08-21T01:25:08.910Z,18.48
2022-08-21T01:27:39.714Z,18.39
2022-08-21T01:30:13.344Z,18.37
2022-08-21T01:32:43.958Z,18.30
2022-08-21T01:35:17.712Z,18.29
2022-08-21T01:37:48.955Z,18.35
2022-08-21T01:40:20.206Z,18.44
2022-08-21T01:42:50.754Z,18.27
2022-08-21T01:45:23.348Z,18.27
2022-08-21T01:47:53.749Z,18.20
2022-08-21T01:50:24.370Z,18.12
2022-08-21T01:52:54.925Z,18.24
2022-08-21T01:55:25.610Z,18.22
2022-08-21T01:57:56.648Z,18.07
2022-08-21T02:00:27.558Z,18.11
2022-08-21T02:02:58.071Z,18.04
2022-08-21T02:05:28.694Z,18.24
2022-08-21T02:07:59.269Z,18.13
2022-08-21T02:10:32.605Z,18.08
2022-08-21T02:13:04.618Z,18.07
2022-08-21T02:15:35.810Z,17.88
2022-08-21T02:18:08.574Z,17.92
2022-08-21T02:20:44.488Z,17.99
2022-08-21T02:23:16.410Z,17.96
2022-08-21T02:25:48.572Z,17.88
2022-08-21T02:28:22.420Z,17.87
2022-08-21T02:30:54.564Z,17.99
2022-08-21T02:33:29.393Z,17.85
2022-08-21T02:36:00.438Z,17.85
2022-08-21T02:38:34.654Z,17.83
2022-08-21T02:41:05.810Z,17.74
2022-08-21T02:43:36.696Z,17.70
2022-08-21T02:46:09.234Z,17.77
2022-08-21T02:48:41.421Z,17.73
2022-08-21T02:51:15.267Z,17.67
2022-08-21T02:53:48.117Z,17.66
2022-08-21T02:56:20.687Z,17.70
2022-08-21T02:58:54.078Z,17.60
2022-08-21T03:01:24.858Z,17.68
2022-08-21T03:03:55.261Z,17.56
2022-08-21T03:06:25.776Z,17.67
2022-08-21T03:08:56.218Z,17.56
2022-08-21T03:11:27.538Z,17.58
2022-08-21T03:13:57.963Z,17.62
2022-08-21T03:16:31.963Z,17.51
2022-08-21T03:19:00.737Z,17.45
2022-08-21T03:21:31.611Z,17.46
2022-08-21T03:24:04.184Z,17.41
2022-08-21T03:26:36.266Z,17.44
2022-08-21T03:29:08.500Z,17.23
2022-08-21T03:31:39.227Z,17.24
2022-08-21T03:34:09.704Z,17.42
2022-08-21T03:36:40.265Z,17.26
2022-08-21T03:39:10.690Z,17.14
2022-08-21T03:41:41.133Z,17.18
2022-08-21T03:44:11.630Z,17.12
2022-08-21T03:46:42.258Z,17.18
2022-08-21T03:49:14.023Z,17.16
2022-08-21T03:51:44.528Z,17.06
2022-08-21T03:54:14.952Z,17.16
2022-08-21T03:56:45.787Z,17.23
2022-08-21T03:59:17.802Z,17.07
2022-08-21T04:02:00.114Z,17.20
2022-08-21T04:04:33.454Z,17.11
2022-08-21T04:07:05.074Z,17.07
2022-08-21T04:09:35.668Z,17.00
2022-08-21T04:12:06.708Z,17.02
2022-08-21T04:14:37.087Z,17.10
2022-08-21T04:17:08.269Z,16.94
2022-08-21T04:19:38.866Z,16.96
2022-08-21T04:22:09.343Z,17.16
2022-08-21T04:24:40.011Z,17.06
2022-08-21T04:27:10.450Z,17.08
2022-08-21T04:29:40.959Z,17.04
2022-08-21T04:32:11.376Z,16.99
2022-08-21T04:34:41.731Z,16.98
2022-08-21T04:37:12.179Z,17.02
2022-08-21T04:39:42.933Z,16.96
2022-08-21T04:42:13.343Z,17.01
2022-08-21T04:44:43.790Z,17.04
2022-08-21T04:47:14.366Z,17.08
2022-08-21T04:49:46.152Z,17.09
2022-08-21T04:52:19.754Z,17.20
2022-08-21T04:54:54.887Z,17.13
2022-08-21T04:57:47.392Z,17.22
2022-08-21T04:59:59.459Z,17.33
2022-08-21T05:02:30.042Z,17.20
2022-08-21T05:05:02.957Z,17.25
2022-08-21T05:07:41.926Z,17.31
2022-08-21T05:10:09.299Z,17.25
2022-08-21T05:12:40.491Z,17.24
2022-08-21T05:15:13.535Z,17.52
2022-08-21T05:17:53.675Z,17.32
2022-08-21T05:20:16.961Z,17.52
2022-08-21T05:22:47.779Z,17.48
2022-08-21T05:25:22.326Z,17.49
2022-08-21T05:27:52.634Z,17.57
2022-08-21T05:30:23.133Z,17.72
2022-08-21T05:32:58.955Z,17.60
2022-08-21T05:35:30.877Z,17.68
2022-08-21T05:38:03.224Z,17.68
2022-08-21T05:40:34.649Z,17.77
2022-08-21T05:43:05.358Z,17.79
2022-08-21T05:45:42.935Z,17.86
2022-08-21T05:48:13.500Z,18.08
2022-08-21T05:50:45.294Z,18.01
2022-08-21T05:53:17.586Z,18.20
2022-08-21T05:55:48.559Z,18.12
2022-08-21T05:58:22.153Z,18.36
2022-08-21T06:00:53.732Z,18.46
2022-08-21T06:03:27.350Z,18.38
2022-08-21T06:05:58.172Z,18.40
2022-08-21T06:08:30.657Z,18.56
2022-08-21T06:11:04.372Z,18.48
2022-08-21T06:13:35.009Z,18.45
2022-08-21T06:16:11.877Z,18.49
2022-08-21T06:18:45.036Z,18.47
2022-08-21T06:21:15.555Z,18.81
2022-08-21T06:23:46.181Z,18.89
2022-08-21T06:26:17.111Z,18.69
2022-08-21T06:28:47.649Z,18.85
2022-08-21T06:31:22.316Z,18.72
2022-08-21T06:33:53.005Z,18.76
2022-08-21T06:36:24.245Z,18.98
2022-08-21T06:38:57.937Z,19.10
2022-08-21T06:41:27.977Z,18.97
2022-08-21T06:44:00.441Z,19.03
2022-08-21T06:46:33.352Z,19.43
2022-08-21T06:49:04.075Z,19.20
2022-08-21T06:51:36.260Z,19.41
2022-08-21T06:54:06.773Z,19.46
2022-08-21T06:56:39.174Z,19.58
2022-08-21T06:59:09.707Z,19.81
2022-08-21T07:01:42.214Z,20.06
2022-08-21T07:04:13.042Z,20.00
2022-08-21T07:06:43.447Z,19.70
2022-08-21T07:09:15.548Z,20.05
2022-08-21T07:11:49.085Z,20.28
2022-08-21T07:14:20.508Z,20.40
2022-08-21T07:16:52.484Z,20.36
2022-08-21T07:19:23.530Z,20.45
2022-08-21T07:21:57.285Z,20.35
2022-08-21T07:24:27.742Z,20.32
2022-08-21T07:27:10.038Z,20.20
2022-08-21T07:29:40.616Z,20.38
2022-08-21T07:32:11.034Z,19.91
2022-08-21T07:34:41.538Z,20.14
2022-08-21T07:37:12.544Z,20.20
2022-08-21T07:39:43.866Z,20.50
2022-08-21T07:42:14.833Z,20.64
2022-08-21T07:44:45.516Z,21.16
2022-08-21T07:47:15.981Z,20.62
2022-08-21T07:49:48.141Z,20.63
2022-08-21T07:52:21.012Z,20.84
2022-08-21T07:54:51.843Z,20.59
2022-08-21T07:57:25.784Z,20.28
2022-08-21T07:59:56.295Z,20.22
2022-08-21T08:02:29.224Z,20.43
2022-08-21T08:05:04.587Z,20.57
2022-08-21T08:07:35.761Z,21.08
2022-08-21T08:10:08.340Z,21.52
2022-08-21T08:12:45.086Z,21.24
2022-08-21T08:15:19.859Z,21.02
2022-08-21T08:17:50.397Z,21.43
2022-08-21T08:20:21.483Z,21.52
2022-08-21T08:22:52.261Z,21.77
2022-08-21T08:25:25.010Z,21.68
2022-08-21T08:27:56.136Z,21.83
2022-08-21T08:30:28.931Z,21.64
2022-08-21T08:32:59.174Z,21.90
2022-08-21T08:35:30.353Z,20.95
2022-08-21T08:38:03.111Z,20.89
2022-08-21T08:40:47.644Z,21.14
2022-08-21T08:43:18.076Z,21.20
2022-08-21T08:45:51.636Z,21.30
2022-08-21T08:48:40.120Z,21.44
2022-08-21T08:51:28.674Z,21.30
2022-08-21T08:54:03.599Z,21.56
2022-08-21T08:56:35.903Z,21.34
2022-08-21T08:59:24.642Z,21.80
2022-08-21T09:01:56.165Z,21.83
2022-08-21T09:04:30.180Z,21.64
2022-08-21T09:07:09.530Z,21.48
2022-08-21T09:09:45.725Z,21.36
2022-08-21T09:12:38.983Z,21.57
2022-08-21T09:15:34.261Z,21.83
2022-08-21T09:18:19.588Z,21.94
2022-08-21T09:20:57.479Z,21.80
2022-08-21T09:23:53.333Z,22.06
2022-08-21T09:26:28.879Z,22.00
2022-08-21T09:29:02.955Z,22.03
2022-08-21T09:31:38.509Z,21.77
2022-08-21T09:34:13.078Z,21.78
2022-08-21T09:36:49.608Z,22.00
2022-08-21T09:39:32.314Z,22.22
2022-08-21T09:42:07.794Z,22.13
2022-08-21T09:44:44.080Z,21.98
2022-08-21T09:47:14.881Z,22.56
2022-08-21T09:49:45.898Z,22.47
2022-08-21T09:52:22.637Z,22.89
2022-08-21T09:54:58.199Z,23.15
2022-08-21T09:57:46.556Z,23.16
2022-08-21T10:00:31.883Z,23.42
2022-08-21T10:03:22.378Z,22.86
2022-08-21T10:05:59.357Z,22.50
2022-08-21T10:08:31.100Z,22.44
2022-08-21T10:11:07.642Z,22.30
2022-08-21T10:14:08.752Z,22.67
2022-08-21T10:17:10.984Z,22.90
2022-08-21T10:19:47.118Z,23.24
2022-08-21T10:22:23.658Z,23.31
2022-08-21T10:25:05.485Z,23.33
2022-08-21T10:27:50.923Z,23.34
2022-08-21T10:30:33.822Z,23.51
2022-08-21T10:33:16.050Z,23.32
2022-08-21T10:35:56.361Z,23.59
2022-08-21T10:39:07.112Z,23.47
2022-08-21T10:41:36.164Z,23.32
2022-08-21T10:44:20.305Z,23.41
2022-08-21T10:46:59.933Z,23.65
2022-08-21T10:49:48.044Z,23.70
2022-08-21T10:52:54.879Z,23.96
2022-08-21T10:55:31.440Z,23.79
2022-08-21T10:58:04.891Z,23.43
2022-08-21T11:00:51.029Z,23.62
2022-08-21T11:03:47.685Z,23.69
2022-08-21T11:06:26.966Z,24.23
2022-08-21T11:09:01.852Z,24.30
2022-08-21T11:11:41.877Z,24.78
2022-08-21T11:14:32.714Z,24.54
2022-08-21T11:17:17.225Z,24.70
2022-08-21T11:19:55.670Z,24.26
2022-08-21T11:22:32.059Z,24.40
2022-08-21T11:25:25.085Z,23.92
2022-08-21T11:28:09.723Z,24.21
2022-08-21T11:30:54.202Z,24.18
2022-08-21T11:33:33.932Z,24.10
2022-08-21T11:36:29.214Z,24.06
2022-08-21T11:39:05.907Z,24.43
2022-08-21T11:41:41.118Z,24.60
2022-08-21T11:44:33.784Z,24.30
2022-08-21T11:47:41.265Z,24.02
2022-08-21T11:50:35.280Z,24.23
2022-08-21T11:52:58.389Z,24.35
2022-08-21T11:55:34.604Z,24.17
2022-08-21T11:58:10.901Z,24.48
2022-08-21T12:00:44.812Z,24.29
2022-08-21T12:03:30.417Z,24.30
2022-08-21T12:06:04.181Z,24.10
2022-08-21T12:08:41.375Z,24.12
2022-08-21T12:11:18.917Z,24.12
2022-08-21T12:14:04.704Z,24.18
2022-08-21T12:16:38.234Z,24.15
2022-08-21T12:19:17.496Z,24.13
2022-08-21T12:22:10.053Z,24.34
2022-08-21T12:24:43.612Z,24.44
2022-08-21T12:27:25.706Z,24.24
2022-08-21T12:30:02.544Z,24.56
2022-08-21T12:32:45.232Z,24.34
2022-08-21T12:35:25.510Z,24.33
2022-08-21T12:38:05.060Z,24.39
2022-08-21T12:40:47.101Z,24.13
2022-08-21T12:43:20.674Z,24.09
2022-08-21T12:45:53.406Z,24.38
2022-08-21T12:48:32.852Z,23.97
2022-08-21T12:51:19.010Z,24.19
2022-08-21T12:53:55.638Z,24.28
2022-08-21T12:56:29.379Z,24.10
2022-08-21T12:59:08.946Z,24.00
2022-08-21T13:01:42.581Z,24.13
2022-08-21T13:04:16.161Z,24.26
2022-08-21T13:06:49.964Z,24.10
2022-08-21T13:09:26.605Z,23.91
2022-08-21T13:11:58.604Z,23.66
2022-08-21T13:14:45.345Z,24.04
2022-08-21T13:17:25.625Z,24.40
2022-08-21T13:20:02.540Z,24.63
2022-08-21T13:22:35.575Z,24.86
2022-08-21T13:25:10.435Z,24.68
2022-08-21T13:27:41.862Z,24.92
2022-08-21T13:30:17.152Z,24.92
2022-08-21T13:32:51.635Z,25.17
2022-08-21T13:35:26.650Z,24.92
2022-08-21T13:37:57.748Z,25.10
2022-08-21T13:40:34.165Z,24.43
2022-08-21T13:43:07.580Z,24.24
2022-08-21T13:45:38.176Z,24.04
2022-08-21T13:48:09.340Z,24.22
2022-08-21T13:50:45.151Z,24.29
2022-08-21T13:53:36.553Z,24.22
2022-08-21T13:56:09.882Z,24.66
2022-08-21T13:58:48.520Z,24.56
2022-08-21T14:01:36.971Z,24.33
2022-08-21T14:04:11.012Z,24.40
2022-08-21T14:06:41.578Z,23.95
2022-08-21T14:09:17.047Z,24.21
2022-08-21T14:11:47.580Z,24.04
2022-08-21T14:14:27.167Z,24.08
2022-08-21T14:17:23.319Z,23.85
2022-08-21T14:19:43.000Z,23.52
2022-08-21T14:22:35.378Z,23.49
2022-08-21T14:25:15.123Z,23.45
2022-08-21T14:27:54.595Z,23.37
2022-08-21T14:30:30.865Z,23.41
2022-08-21T14:33:06.270Z,23.50
2022-08-21T14:35:37.720Z,23.59
2022-08-21T14:38:17.087Z,23.62
2022-08-21T14:40:50.676Z,23.78
2022-08-21T14:43:24.978Z,23.73
2022-08-21T14:45:56.296Z,23.84
2022-08-21T14:48:26.726Z,23.84
2022-08-21T14:51:00.500Z,24.14
2022-08-21T14:53:31.467Z,24.14
2022-08-21T14:56:08.036Z,24.12
2022-08-21T14:58:41.078Z,24.42
2022-08-21T15:01:14.801Z,24.21
2022-08-21T15:03:48.599Z,24.16
2022-08-21T15:06:21.914Z,24.14
2022-08-21T15:08:52.580Z,24.29
2022-08-21T15:11:41.674Z,23.96
2022-08-21T15:14:01.939Z,23.65
2022-08-21T15:16:35.355Z,24.04
2022-08-21T15:19:05.808Z,24.26
2022-08-21T15:21:37.553Z,23.98
2022-08-21T15:24:08.390Z,23.94
2022-08-21T15:26:38.981Z,23.87
2022-08-21T15:29:10.252Z,23.71
2022-08-21T15:31:44.246Z,24.02
2022-08-21T15:34:14.671Z,24.08
2022-08-21T15:36:46.321Z,23.95
2022-08-21T15:39:17.548Z,23.96
2022-08-21T15:41:48.918Z,23.82
2022-08-21T15:44:19.640Z,23.60
2022-08-21T15:46:50.188Z,23.65
2022-08-21T15:49:20.716Z,23.67
2022-08-21T15:51:51.394Z,23.55
2022-08-21T15:54:22.087Z,23.46
2022-08-21T15:56:53.107Z,23.63
2022-08-21T15:59:24.333Z,23.56
2022-08-21T16:01:55.044Z,23.72
2022-08-21T16:04:28.541Z,23.62
2022-08-21T16:07:05.214Z,23.63
2022-08-21T16:09:34.270Z,23.86
2022-08-21T16:12:07.522Z,23.86
2022-08-21T16:14:38.513Z,23.59
2022-08-21T16:17:10.861Z,23.90
2022-08-21T16:19:41.566Z,23.54
2022-08-21T16:22:12.032Z,23.42
2022-08-21T16:24:42.517Z,23.50
2022-08-21T16:27:16.791Z,23.22
2022-08-21T16:29:49.360Z,23.11
2022-08-21T16:32:19.986Z,23.09
2022-08-21T16:34:51.143Z,23.06
2022-08-21T16:37:24.471Z,23.00
2022-08-21T16:39:54.873Z,23.16
2022-08-21T16:42:27.684Z,23.19
2022-08-21T16:44:59.670Z,23.23
2022-08-21T16:47:32.845Z,23.26
2022-08-21T16:50:06.044Z,23.06
2022-08-21T16:52:37.011Z,22.83
2022-08-21T16:55:08.361Z,22.77
2022-08-21T16:57:40.279Z,22.78
2022-08-21T17:00:15.975Z,22.85
2022-08-21T17:02:49.167Z,23.18
2022-08-21T17:05:20.132Z,23.06
2022-08-21T17:07:51.789Z,22.94
2022-08-21T17:10:22.762Z,22.89
2022-08-21T17:12:56.413Z,22.87
2022-08-21T17:15:30.038Z,22.80
2022-08-21T17:18:01.902Z,22.70
2022-08-21T17:20:33.174Z,22.58
2022-08-21T17:23:04.095Z,22.89
2022-08-21T17:25:35.067Z,23.18
2022-08-21T17:28:07.006Z,22.86
2022-08-21T17:30:39.178Z,22.97
2022-08-21T17:33:09.762Z,23.07
2022-08-21T17:35:40.912Z,22.72
2022-08-21T17:38:14.900Z,22.56
2022-08-21T17:40:50.757Z,22.92
2022-08-21T17:43:23.780Z,22.77
2022-08-21T17:45:55.507Z,22.98
2022-08-21T17:48:26.332Z,22.90
2022-08-21T17:50:56.823Z,22.60
2022-08-21T17:53:27.950Z,22.62
2022-08-21T17:55:58.800Z,22.44
2022-08-21T17:58:29.402Z,22.28
2022-08-21T18:01:03.879Z,22.13
2022-08-21T18:03:37.145Z,22.04
2022-08-21T18:06:13.274Z,22.01
2022-08-21T18:08:42.195Z,21.91
2022-08-21T18:11:23.378Z,21.82
2022-08-21T18:13:45.333Z,21.64
2022-08-21T18:16:19.042Z,21.59
2022-08-21T18:18:51.935Z,21.35
2022-08-21T18:21:23.118Z,21.26
2022-08-21T18:23:55.794Z,21.15
2022-08-21T18:26:32.476Z,21.06
2022-08-21T18:29:05.456Z,20.92
2022-08-21T18:31:38.604Z,20.89
2022-08-21T18:34:27.289Z,20.75
2022-08-21T18:36:58.379Z,20.64
2022-08-21T18:39:38.921Z,20.54
2022-08-21T18:42:06.496Z,20.58
2022-08-21T18:44:38.407Z,20.62
2022-08-21T18:47:14.658Z,20.81
2022-08-21T18:49:46.367Z,20.70
2022-08-21T18:52:20.352Z,20.50
2022-08-21T18:54:50.666Z,20.38
2022-08-21T18:57:22.787Z,20.36
2022-08-21T18:59:53.692Z,20.39
2022-08-21T19:02:25.606Z,20.34
2022-08-21T19:07:22.169Z,20.17
2022-08-21T19:10:24.166Z,20.08
2022-08-21T19:12:29.906Z,19.98
2022-08-21T19:15:02.743Z,19.90
2022-08-21T19:17:33.684Z,19.86
2022-08-21T19:20:25.073Z,19.86
2022-08-21T19:22:53.433Z,19.92
2022-08-21T19:25:33.696Z,19.94
2022-08-21T19:27:54.940Z,20.14
2022-08-21T19:30:30.429Z,20.05
2022-08-21T19:33:03.741Z,20.10
2022-08-21T19:35:35.166Z,19.90
2022-08-21T19:38:06.109Z,19.82
2022-08-21T19:40:36.623Z,19.81
2022-08-21T19:43:11.503Z,19.92
2022-08-21T19:45:42.868Z,20.21
2022-08-21T19:48:13.730Z,20.24
2022-08-21T19:50:44.710Z,20.20
2022-08-21T19:53:15.340Z,20.15
2022-08-21T19:55:48.507Z,20.12
2022-08-21T19:58:30.182Z,20.09
2022-08-21T20:01:01.431Z,20.08
2022-08-21T20:03:32.986Z,20.05
2022-08-21T20:06:05.422Z,20.06
2022-08-21T20:08:36.025Z,19.92
2022-08-21T20:11:08.749Z,19.89
2022-08-21T20:13:41.082Z,19.82
2022-08-21T20:16:16.549Z,19.77
2022-08-21T20:18:48.095Z,19.75
2022-08-21T20:21:18.617Z,19.75
2022-08-21T20:23:50.068Z,19.60
2022-08-21T20:26:20.879Z,19.46
2022-08-21T20:28:52.821Z,19.44
2022-08-21T20:31:25.285Z,19.32
2022-08-21T20:33:58.699Z,19.25
2022-08-21T20:36:29.142Z,19.24
2022-08-21T20:38:59.590Z,19.14
2022-08-21T20:41:30.953Z,19.08
2022-08-21T20:44:04.428Z,19.06
2022-08-21T20:46:36.502Z,18.97
2022-08-21T20:49:08.809Z,18.92
2022-08-21T20:51:48.231Z,19.06
2022-08-21T20:54:21.699Z,19.16
2022-08-21T20:57:03.947Z,19.16
2022-08-21T20:59:40.358Z,19.26
2022-08-21T21:02:19.629Z,19.18
2022-08-21T21:04:53.138Z,19.26
2022-08-21T21:07:33.758Z,19.12
2022-08-21T21:10:08.894Z,19.02
2022-08-21T21:12:44.019Z,18.90
2022-08-21T21:18:07.122Z,18.76
2022-08-21T21:20:52.215Z,18.72
2022-08-21T21:23:32.379Z,18.66
2022-08-21T21:26:14.458Z,18.56
2022-08-21T21:28:53.835Z,18.53
2022-08-21T21:31:28.261Z,18.44
2022-08-21T21:34:00.171Z,18.42
2022-08-21T21:36:36.431Z,18.37
2022-08-21T21:39:36.381Z,18.31
2022-08-21T21:42:08.339Z,18.28
2022-08-21T21:44:54.587Z,18.30
2022-08-21T21:47:40.407Z,18.24
2022-08-21T21:50:20.805Z,18.18
2022-08-21T21:53:01.272Z,18.22
2022-08-21T21:55:45.338Z,18.19
2022-08-21T21:58:37.787Z,18.11
2022-08-21T22:01:30.770Z,18.09
2022-08-21T22:04:07.573Z,18.06
2022-08-21T22:06:58.975Z,18.07
2022-08-21T22:09:48.182Z,18.00
2022-08-21T22:12:31.077Z,18.02
2022-08-21T22:15:02.019Z,17.94
2022-08-21T22:17:37.442Z,17.93
2022-08-21T22:20:15.496Z,18.05
2022-08-21T22:22:48.229Z,18.08
2022-08-21T22:25:23.536Z,18.04
2022-08-21T22:28:05.293Z,18.02
2022-08-21T22:30:50.956Z,17.97
2022-08-21T22:33:28.935Z,17.97
2022-08-21T22:36:00.758Z,17.86
2022-08-21T22:38:39.543Z,17.94
2022-08-21T22:41:14.748Z,18.00
2022-08-21T22:44:01.612Z,17.89
2022-08-21T22:46:37.498Z,17.82
2022-08-21T22:49:16.814Z,17.87
2022-08-21T22:51:50.316Z,17.95
2022-08-21T22:54:26.954Z,18.03
2022-08-21T22:57:04.860Z,17.92
2022-08-21T22:59:38.672Z,17.94
2022-08-21T23:02:24.217Z,18.04
2022-08-21T23:04:58.468Z,18.14
2022-08-21T23:07:43.687Z,18.07
2022-08-21T23:10:29.006Z,18.04
2022-08-21T23:13:09.682Z,17.98
2022-08-21T23:15:50.605Z,18.05
2022-08-21T23:18:34.696Z,17.96
2022-08-21T23:21:22.449Z,17.92
2022-08-21T23:24:19.604Z,17.95
2022-08-21T23:26:46.830Z,17.97
2022-08-21T23:29:32.207Z,18.00
2022-08-21T23:32:28.406Z,18.04
2022-08-21T23:35:08.341Z,18.19
2022-08-21T23:40:50.517Z,18.12
2022-08-21T23:43:37.614Z,18.15
2022-08-21T23:46:34.195Z,18.17
2022-08-21T23:49:17.597Z,18.08
2022-08-21T23:52:02.057Z,18.10
2022-08-21T23:54:56.423Z,18.00
2022-08-21T23:57:55.972Z,18.04
